• Join FlightAware (Why Join?)
  • Login
  • US Flag 
05:26AM EDT


 

Airport Tracker/Info


-or-


 

Live Flight TrackerFlight Track Log ✈ SWA3636 ✈ 27 May 2013 ✈ KSAN - KSJC

Flight Track Log - Related Links

Times and Time Zones

All times are in EDT time to prevent confusion due to time zone crossing. See the SWA3636 flight status page for this flight to view local times or setup timezone preferences in your user account.

Time Position Orientation Groundspeed Altitude Reporting Facility
EDT Latitude Longitude Course Direction KTS MPH feet Rate Location/Type
12:03AM 32.7531 -117.2347 320° Northwest 176 203 1,800  Level Los Angeles Center
12:04AM 32.7869 -117.2900 306° West 204 235 4,500 2,820 Climbing Los Angeles Center
12:05AM 32.8333 -117.3503 312° West 236 272 7,600 3,120 Climbing Los Angeles Center
12:06AM 32.8825 -117.4194 310° West 264 304 10,900 2,820 Climbing Los Angeles Center
12:07AM 32.9397 -117.5014 310° West 312 359 13,500 3,000 Climbing Los Angeles Center
12:08AM 33.0167 -117.6058 311° West 344 396 17,100 3,120 Climbing Los Angeles Center
12:09AM 33.1088 -117.7254 320° Northwest  Level FlightAware Approximate
12:09AM 33.0842 -117.6989 311° West 364 419 20,000  Level Los Angeles Center
12:10AM 33.1522 -117.7958 310° West 376 433 22,800 2,460 Climbing Los Angeles Center
12:11AM 33.2233 -117.8975 310° West 396 456 25,100 2,100 Climbing Los Angeles Center
12:12AM 33.2969 -118.0025 310° West 410 472 27,200 1,980 Climbing Los Angeles Center
12:14AM 33.3728 -118.1106 310° West 422 486 29,200 2,220 Climbing Los Angeles Center
12:15AM 33.4492 -118.2203 310° West 427 491 31,800 2,220 Climbing Los Angeles Center
12:16AM 33.5222 -118.3253 310° West 412 474 33,800 1,800 Climbing Los Angeles Center
12:17AM 33.5956 -118.4336 309° West 412 474 35,500 1,740 Climbing Los Angeles Center
12:18AM 33.6858 -118.5644 310° West 416 479 37,400 1,200 Climbing Los Angeles Center
12:19AM 33.7589 -118.6683 310° West 407 468 38,000 240 Climbing Los Angeles Center
12:20AM 33.8292 -118.7703 310° West 398 458 38,000  Level Los Angeles Center
12:21AM 33.8997 -118.8717 310° West 395 455 38,000  Level Los Angeles Center
12:22AM 33.9558 -118.9542 309° West 398 458 38,000  Level Los Angeles Center
12:23AM 34.0397 -119.0778 309° West 398 458 38,000  Level Los Angeles Center
12:24AM 34.1089 -119.1808 309° West 398 458 38,000  Level Los Angeles Center
12:25AM 34.1797 -119.2836 310° West 397 457 38,000  Level Los Angeles Center
12:26AM 34.2497 -119.3881 309° West 400 460 38,000  Level Los Angeles Center
12:27AM 34.3206 -119.4903 310° West 399 459 38,000  Level Los Angeles Center
12:28AM 34.4028 -119.6158 308° West 398 458 38,000  Level Los Angeles Center
12:29AM 34.4719 -119.7183 309° West 396 456 38,000  Level Los Angeles Center
12:30AM 34.5483 -119.8108 315° West 390 449 38,000  Level Los Angeles Center
12:31AM 34.6153 -119.8581 330° Northwest 400 460 38,000  Level Los Angeles Center
12:32AM 34.7422 -119.9625 326° Northwest 395 455 38,000  Level Los Angeles Center
12:33AM 34.8328 -120.0383 326° Northwest 395 455 38,000  Level Los Angeles Center
12:34AM 34.9172 -120.1083 326° Northwest 393 452 38,000  Level Los Angeles Center
12:35AM 35.0081 -120.1836 326° Northwest 396 456 38,000  Level Los Angeles Center
12:36AM 35.0986 -120.2589 326° Northwest 398 458 38,000  Level Los Angeles Center
12:37AM 35.1878 -120.3339 326° Northwest 393 452 38,000  Level Los Angeles Center
12:38AM 35.2947 -120.4231 326° Northwest 393 452 38,000  Level Los Angeles Center
12:39AM 35.3819 -120.5022 324° Northwest 396 456 38,000  Level Los Angeles Center
12:40AM 35.4719 -120.5769 326° Northwest 392 451 38,000  Level Los Angeles Center
12:41AM 35.5600 -120.6503 326° Northwest 387 445 38,000  Level Los Angeles Center
12:42AM 35.6461 -120.7239 325° Northwest 386 444 38,000 -60 Level Los Angeles Center
12:43AM 35.7344 -120.7986 326° Northwest 384 442 37,900 -1,440 Descending Los Angeles Center
12:44AM 35.8394 -120.8875 326° Northwest 384 442 35,100 -2,460 Descending Los Angeles Center
12:45AM 35.9253 -120.9619 325° Northwest 380 437 33,000 -2,040 Descending Los Angeles Center
12:46AM 36.0242 -121.0469 325° Northwest 361 415 30,600 -1,980 Descending Oakland Center
12:47AM 36.1044 -121.1147 326° Northwest 349 402 28,700 -1,920 Descending Oakland Center
12:48AM 36.1800 -121.1814 325° Northwest 335 386 26,800 -1,860 Descending Oakland Center
12:49AM 36.2547 -121.2461 325° Northwest 327 376 25,000 -1,800 Descending Oakland Center
12:51AM 36.3269 -121.3100 325° Northwest 319 367 23,200 -1,800 Descending Oakland Center
12:52AM 36.4022 -121.3708 327° Northwest 321 369 21,400 -1,620 Descending Oakland Center
12:53AM 36.4708 -121.4342 323° Northwest 307 353 20,000 -1,680 Descending Oakland Center
12:54AM 36.5372 -121.4914 325° Northwest 294 338 18,000 -2,040 Descending Oakland Center
12:55AM 36.6061 -121.5550 323° Northwest 305 351 15,900 -1,800 Descending Oakland Center
12:56AM 36.6778 -121.6075 330° Northwest 299 344 14,400 -1,500 Descending Oakland Center
12:57AM 36.7786 -121.5928 North 297 342 12,900 -1,440 Descending Oakland Center
12:58AM 36.8506 -121.5694 15° North 286 329 11,500 -1,200 Descending Oakland Center
12:59AM 36.9208 -121.5414 18° North 276 318 10,500 -1,020 Descending Oakland Center
01:00AM 36.9853 -121.5603 347° North 242 278 9,500 -1,020 Descending Oakland Center
01:01AM 37.0478 -121.5817 345° North 236 272 8,500 -1,080 Descending Oakland Center
01:02AM 37.0953 -121.6375 317° Northwest 225 259 7,400 -840 Descending Oakland Center
01:03AM 37.1389 -121.6867 318° Northwest 212 244 6,900 -600 Descending Oakland Center
01:04AM 37.1742 -121.7256 319° Northwest 174 200 6,300 -1,080 Descending Oakland Center
01:05AM 37.2019 -121.7572 318° Northwest 156 180 4,800 -1,500 Descending Oakland Center
01:06AM 37.2308 -121.7911 317° Northwest 148 170 3,300 -1,260 Descending Oakland Center
01:07AM 37.2658 -121.8269 321° Northwest 140 161 2,300 -840 Descending Oakland Center
01:08AM 37.2950 -121.8572 320° Northwest 137 158 1,600 -780 Descending Oakland Center
01:09AM 37.3250 -121.8894 320° Northwest 139 160 800 -780 Descending Oakland Center
01:10AM 37.3536 -121.9203 319° Northwest 138 159 100 -720 Descending Oakland Center
01:12AM 37.3500 -121.9167 North  Level FlightAware Approximate